sensor_id;sensor_type;location;lat;lon;timestamp;pressure;altitude;pressure_sealevel;temperature;humidity
49945;BME280;35838;49.134;9.212;2023-09-08T02:22:29;100090.63;;;17.49;100.00
49945;BME280;35838;49.134;9.212;2023-09-08T02:24:03;100093.31;;;17.46;100.00
49945;BME280;35838;49.134;9.212;2023-09-08T02:25:34;100082.75;;;17.49;100.00
49945;BME280;35838;49.134;9.212;2023-09-08T02:27:08;100087.44;;;17.38;100.00
49945;BME280;35838;49.134;9.212;2023-09-08T02:28:39;100093.78;;;17.31;100.00
49945;BME280;35838;49.134;9.212;2023-09-08T02:30:12;100097.47;;;17.23;100.00
49945;BME280;35838;49.134;9.212;2023-09-08T02:31:43;100091.25;;;17.28;100.00
49945;BME280;35838;49.134;9.212;2023-09-08T02:33:17;100092.13;;;17.27;100.00
49945;BME280;35838;49.134;9.212;2023-09-08T02:34:48;100085.09;;;17.29;100.00
49945;BME280;35838;49.134;9.212;2023-09-08T02:36:23;100088.63;;;17.28;100.00
49945;BME280;35838;49.134;9.212;2023-09-08T02:37:59;100084.34;;;17.23;100.00
49945;BME280;35838;49.134;9.212;2023-09-08T02:39:33;100083.22;;;17.32;100.00
49945;BME280;35838;49.134;9.212;2023-09-08T02:41:04;100082.53;;;17.27;100.00
49945;BME280;35838;49.134;9.212;2023-09-08T02:42:37;100082.28;;;17.05;100.00
49945;BME280;35838;49.134;9.212;2023-09-08T02:44:08;100086.50;;;17.09;100.00
49945;BME280;35838;49.134;9.212;2023-09-08T02:45:42;100087.34;;;17.11;100.00
49945;BME280;35838;49.134;9.212;2023-09-08T02:47:13;100083.84;;;17.11;100.00
49945;BME280;35838;49.134;9.212;2023-09-08T02:48:46;100089.88;;;17.14;100.00
49945;BME280;35838;49.134;9.212;2023-09-08T02:50:17;100080.28;;;17.13;100.00
49945;BME280;35838;49.134;9.212;2023-09-08T02:51:51;100080.44;;;17.09;100.00
49945;BME280;35838;49.134;9.212;2023-09-08T02:53:25;100080.56;;;17.04;100.00
49945;BME280;35838;49.134;9.212;2023-09-08T02:54:59;100084.97;;;17.02;100.00
49945;BME280;35838;49.134;9.212;2023-09-08T02:56:30;100080.81;;;16.95;100.00
49945;BME280;35838;49.134;9.212;2023-09-08T02:58:03;100081.41;;;17.04;100.00
49945;BME280;35838;49.134;9.212;2023-09-08T02:59:34;100075.19;;;17.07;100.00
49945;BME280;35838;49.134;9.212;2023-09-08T03:01:11;100080.38;;;17.10;100.00
49945;BME280;35838;49.134;9.212;2023-09-08T03:02:44;100073.41;;;17.09;100.00
49945;BME280;35838;49.134;9.212;2023-09-08T03:04:17;100080.44;;;17.07;100.00
49945;BME280;35838;49.134;9.212;2023-09-08T03:05:48;100079.66;;;17.05;100.00
49945;BME280;35838;49.134;9.212;2023-09-08T03:07:28;100076.22;;;17.03;100.00
49945;BME280;35838;49.134;9.212;2023-09-08T03:09:07;100077.19;;;16.99;100.00
49945;BME280;35838;49.134;9.212;2023-09-08T03:10:38;100082.44;;;16.99;100.00
49945;BME280;35838;49.134;9.212;2023-09-08T03:12:11;100076.47;;;16.94;100.00
49945;BME280;35838;49.134;9.212;2023-09-08T03:13:42;100084.31;;;16.94;100.00
49945;BME280;35838;49.134;9.212;2023-09-08T03:15:16;100081.84;;;16.87;100.00
49945;BME280;35838;49.134;9.212;2023-09-08T03:16:47;100078.28;;;16.90;100.00
49945;BME280;35838;49.134;9.212;2023-09-08T03:18:20;100080.91;;;16.90;100.00
49945;BME280;35838;49.134;9.212;2023-09-08T03:19:51;100083.72;;;16.82;100.00
49945;BME280;35838;49.134;9.212;2023-09-08T03:21:25;100087.28;;;16.80;100.00
49945;BME280;35838;49.134;9.212;2023-09-08T03:22:56;100079.38;;;16.81;100.00
49945;BME280;35838;49.134;9.212;2023-09-08T03:24:32;100080.16;;;16.85;100.00
49945;BME280;35838;49.134;9.212;2023-09-08T03:26:06;100082.03;;;16.80;100.00
49945;BME280;35838;49.134;9.212;2023-09-08T03:27:37;100083.78;;;16.81;100.00
49945;BME280;35838;49.134;9.212;2023-09-08T03:29:11;100084.63;;;16.81;100.00
49945;BME280;35838;49.134;9.212;2023-09-08T03:30:42;100089.84;;;16.83;100.00
49945;BME280;35838;49.134;9.212;2023-09-08T03:32:16;100088.25;;;16.77;100.00
49945;BME280;35838;49.134;9.212;2023-09-08T03:33:49;100095.28;;;16.75;100.00
49945;BME280;35838;49.134;9.212;2023-09-08T03:35:20;100094.38;;;16.76;100.00
49945;BME280;35838;49.134;9.212;2023-09-08T03:36:54;100082.88;;;16.80;100.00
49945;BME280;35838;49.134;9.212;2023-09-08T03:38:28;100090.81;;;16.79;100.00
49945;BME280;35838;49.134;9.212;2023-09-08T03:40:01;100084.78;;;16.75;100.00
49945;BME280;35838;49.134;9.212;2023-09-08T03:41:36;100084.78;;;16.75;100.00
49945;BME280;35838;49.134;9.212;2023-09-08T03:43:09;100083.06;;;16.74;100.00
49945;BME280;35838;49.134;9.212;2023-09-08T03:44:40;100089.25;;;16.71;100.00
49945;BME280;35838;49.134;9.212;2023-09-08T03:46:14;100086.63;;;16.71;100.00
49945;BME280;35838;49.134;9.212;2023-09-08T03:47:45;100087.47;;;16.72;100.00
49945;BME280;35838;49.134;9.212;2023-09-08T03:49:19;100086.59;;;16.73;100.00
49945;BME280;35838;49.134;9.212;2023-09-08T03:50:50;100085.75;;;16.71;100.00
49945;BME280;35838;49.134;9.212;2023-09-08T03:52:24;100084.84;;;16.72;100.00
49945;BME280;35838;49.134;9.212;2023-09-08T03:53:55;100082.22;;;16.73;100.00
49945;BME280;35838;49.134;9.212;2023-09-08T03:55:31;100082.41;;;16.66;100.00
49945;BME280;35838;49.134;9.212;2023-09-08T03:57:03;100088.72;;;16.58;100.00
49945;BME280;35838;49.134;9.212;2023-09-08T03:58:36;100086.16;;;16.57;100.00
49945;BME280;35838;49.134;9.212;2023-09-08T04:00:08;100092.16;;;16.60;100.00
49945;BME280;35838;49.134;9.212;2023-09-08T04:01:43;100093.06;;;16.58;100.00
49945;BME280;35838;49.134;9.212;2023-09-08T04:03:17;100086.09;;;16.58;100.00
49945;BME280;35838;49.134;9.212;2023-09-08T04:04:48;100091.53;;;16.51;100.00
49945;BME280;35838;49.134;9.212;2023-09-08T04:06:22;100089.03;;;16.46;100.00
49945;BME280;35838;49.134;9.212;2023-09-08T04:07:55;100100.44;;;16.43;100.00
49945;BME280;35838;49.134;9.212;2023-09-08T04:09:26;100098.66;;;16.44;100.00
49945;BME280;35838;49.134;9.212;2023-09-08T04:11:05;100104.84;;;16.43;100.00
49945;BME280;35838;49.134;9.212;2023-09-08T04:12:36;100097.81;;;16.43;100.00
49945;BME280;35838;49.134;9.212;2023-09-08T04:14:09;100104.75;;;16.46;100.00
49945;BME280;35838;49.134;9.212;2023-09-08T04:15:40;100108.34;;;16.42;100.00
49945;BME280;35838;49.134;9.212;2023-09-08T04:17:14;100101.38;;;16.41;100.00
49945;BME280;35838;49.134;9.212;2023-09-08T04:18:45;100097.78;;;16.45;100.00
49945;BME280;35838;49.134;9.212;2023-09-08T04:20:18;100102.16;;;16.44;100.00
49945;BME280;35838;49.134;9.212;2023-09-08T04:21:50;100103.13;;;16.40;100.00
49945;BME280;35838;49.134;9.212;2023-09-08T04:23:23;100101.34;;;16.42;100.00
49945;BME280;35838;49.134;9.212;2023-09-08T04:24:57;100101.19;;;16.49;100.00
49945;BME280;35838;49.134;9.212;2023-09-08T04:26:33;100105.56;;;16.48;100.00
49945;BME280;35838;49.134;9.212;2023-09-08T04:28:04;100105.56;;;16.48;100.00
49945;BME280;35838;49.134;9.212;2023-09-08T04:29:38;100099.47;;;16.48;100.00
49945;BME280;35838;49.134;9.212;2023-09-08T04:31:09;100107.34;;;16.48;100.00
49945;BME280;35838;49.134;9.212;2023-09-08T04:32:43;100106.50;;;16.45;100.00
49945;BME280;35838;49.134;9.212;2023-09-08T04:34:14;100102.16;;;16.44;100.00
49945;BME280;35838;49.134;9.212;2023-09-08T04:35:48;100105.00;;;16.35;100.00
49945;BME280;35838;49.134;9.212;2023-09-08T04:37:19;100105.91;;;16.34;100.00
49945;BME280;35838;49.134;9.212;2023-09-08T04:38:53;100109.53;;;16.30;100.00
49945;BME280;35838;49.134;9.212;2023-09-08T04:40:24;100114.75;;;16.30;100.00
49945;BME280;35838;49.134;9.212;2023-09-08T04:42:00;100107.13;;;16.21;100.00
49945;BME280;35838;49.134;9.212;2023-09-08T04:43:31;100119.50;;;16.14;100.00
49945;BME280;35838;49.134;9.212;2023-09-08T04:45:05;100116.03;;;16.12;100.00
49945;BME280;35838;49.134;9.212;2023-09-08T04:46:40;100116.03;;;16.12;100.00
49945;BME280;35838;49.134;9.212;2023-09-08T04:48:11;100116.88;;;16.14;100.00
49945;BME280;35838;49.134;9.212;2023-09-08T04:49:45;100106.47;;;16.11;100.00
49945;BME280;35838;49.134;9.212;2023-09-08T04:51:16;100110.81;;;16.12;100.00
49945;BME280;35838;49.134;9.212;2023-09-08T04:52:49;100126.50;;;16.12;100.00
49945;BME280;35838;49.134;9.212;2023-09-08T04:54:20;100129.97;;;16.14;100.00
49945;BME280;35838;49.134;9.212;2023-09-08T04:55:57;100128.31;;;16.10;100.00
49945;BME280;35838;49.134;9.212;2023-09-08T04:57:30;100124.78;;;16.11;100.00
49945;BME280;35838;49.134;9.212;2023-09-08T04:59:04;100118.56;;;16.17;100.00
49945;BME280;35838;49.134;9.212;2023-09-08T05:00:37;100122.06;;;16.17;100.00
49945;BME280;35838;49.134;9.212;2023-09-08T05:02:10;100114.88;;;16.24;100.00
49945;BME280;35838;49.134;9.212;2023-09-08T05:03:42;100123.84;;;16.13;100.00
49945;BME280;35838;49.134;9.212;2023-09-08T05:05:15;100121.22;;;16.13;100.00
49945;BME280;35838;49.134;9.212;2023-09-08T05:06:46;100131.97;;;16.03;100.00
49945;BME280;35838;49.134;9.212;2023-09-08T05:08:20;100122.38;;;16.02;100.00
49945;BME280;35838;49.134;9.212;2023-09-08T05:09:51;100129.34;;;16.03;100.00
49945;BME280;35838;49.134;9.212;2023-09-08T05:11:25;100131.91;;;16.06;100.00
49945;BME280;35838;49.134;9.212;2023-09-08T05:12:59;100131.81;;;16.09;100.00
49945;BME280;35838;49.134;9.212;2023-09-08T05:14:32;100130.84;;;16.13;100.00
49945;BME280;35838;49.134;9.212;2023-09-08T05:16:04;100132.75;;;16.06;100.00
49945;BME280;35838;49.134;9.212;2023-09-08T05:17:44;100135.47;;;16.02;100.00
49945;BME280;35838;49.134;9.212;2023-09-08T05:19:15;100131.84;;;16.07;100.00
49945;BME280;35838;49.134;9.212;2023-09-08T05:20:48;100134.56;;;16.04;100.00
49945;BME280;35838;49.134;9.212;2023-09-08T05:22:19;100137.97;;;16.08;100.00
49945;BME280;35838;49.134;9.212;2023-09-08T05:23:53;100143.31;;;16.03;100.00
49945;BME280;35838;49.134;9.212;2023-09-08T05:25:24;100146.63;;;16.10;100.00
49945;BME280;35838;49.134;9.212;2023-09-08T05:26:57;100136.16;;;16.10;100.00
49945;BME280;35838;49.134;9.212;2023-09-08T05:28:31;100147.41;;;16.15;100.00
49945;BME280;35838;49.134;9.212;2023-09-08T05:30:05;100142.75;;;16.26;100.00
49945;BME280;35838;49.134;9.212;2023-09-08T05:31:40;100145.31;;;16.29;100.00
49945;BME280;35838;49.134;9.212;2023-09-08T05:33:11;100141.06;;;16.25;100.00
49945;BME280;35838;49.134;9.212;2023-09-08T05:34:44;100140.84;;;16.33;100.00
49945;BME280;35838;49.134;9.212;2023-09-08T05:36:18;100138.28;;;16.32;100.00
49945;BME280;35838;49.134;9.212;2023-09-08T05:37:49;100135.81;;;16.25;100.00
49945;BME280;35838;49.134;9.212;2023-09-08T05:39:23;100141.91;;;16.26;100.00
49945;BME280;35838;49.134;9.212;2023-09-08T05:40:56;100145.50;;;16.22;100.00
49945;BME280;35838;49.134;9.212;2023-09-08T05:42:27;100145.63;;;16.17;100.00
49945;BME280;35838;49.134;9.212;2023-09-08T05:44:04;100144.69;;;16.20;100.00
49945;BME280;35838;49.134;9.212;2023-09-08T05:45:37;100141.06;;;16.24;100.00
49945;BME280;35838;49.134;9.212;2023-09-08T05:47:08;100133.09;;;16.28;100.00
49945;BME280;35838;49.134;9.212;2023-09-08T05:48:42;100130.25;;;16.38;100.00
49945;BME280;35838;49.134;9.212;2023-09-08T05:50:13;100140.00;;;16.33;100.00
49945;BME280;35838;49.134;9.212;2023-09-08T05:51:47;100134.59;;;16.39;100.00
49945;BME280;35838;49.134;9.212;2023-09-08T05:53:18;100137.97;;;16.44;100.00
49945;BME280;35838;49.134;9.212;2023-09-08T05:54:52;100136.28;;;16.43;100.00
49945;BME280;35838;49.134;9.212;2023-09-08T05:56:29;100143.38;;;16.38;100.00
49945;BME280;35838;49.134;9.212;2023-09-08T05:58:00;100142.41;;;16.42;100.00
49945;BME280;35838;49.134;9.212;2023-09-08T05:59:36;100144.84;;;16.48;100.00
49945;BME280;35838;49.134;9.212;2023-09-08T06:01:10;100140.41;;;16.52;100.00
49945;BME280;35838;49.134;9.212;2023-09-08T06:02:44;100144.81;;;16.50;100.00
49945;BME280;35838;49.134;9.212;2023-09-08T06:04:15;100143.69;;;16.62;100.00
49945;BME280;35838;49.134;9.212;2023-09-08T06:05:49;100149.56;;;16.70;100.00
49945;BME280;35838;49.134;9.212;2023-09-08T06:07:20;100149.56;;;16.70;100.00
49945;BME280;35838;49.134;9.212;2023-09-08T06:08:53;100149.34;;;16.79;100.00
49945;BME280;35838;49.134;9.212;2023-09-08T06:10:27;100147.53;;;16.81;100.00
49945;BME280;35838;49.134;9.212;2023-09-08T06:11:58;100147.44;;;16.84;100.00
49945;BME280;35838;49.134;9.212;2023-09-08T06:13:32;100153.47;;;16.88;100.00
49945;BME280;35838;49.134;9.212;2023-09-08T06:15:06;100151.69;;;16.88;100.00
49945;BME280;35838;49.134;9.212;2023-09-08T06:16:40;100147.25;;;16.94;100.00
49945;BME280;35838;49.134;9.212;2023-09-08T06:18:11;100149.81;;;16.95;100.00
49945;BME280;35838;49.134;9.212;2023-09-08T06:19:45;100151.47;;;16.98;100.00
49945;BME280;35838;49.134;9.212;2023-09-08T06:21:16;100152.13;;;17.06;100.00
49945;BME280;35838;49.134;9.212;2023-09-08T06:22:49;100154.63;;;17.11;100.00
49945;BME280;35838;49.134;9.212;2023-09-08T06:24:20;100155.34;;;17.17;100.00
49945;BME280;35838;49.134;9.212;2023-09-08T06:25:56;100151.81;;;17.18;100.00
49945;BME280;35838;49.134;9.212;2023-09-08T06:27:29;100149.84;;;17.27;100.00
49945;BME280;35838;49.134;9.212;2023-09-08T06:29:03;100145.03;;;17.43;100.00
49945;BME280;35838;49.134;9.212;2023-09-08T06:30:37;100143.88;;;17.51;100.00
49945;BME280;35838;49.134;9.212;2023-09-08T06:32:12;100137.59;;;17.57;100.00
49945;BME280;35838;49.134;9.212;2023-09-08T06:33:43;100141.19;;;17.54;100.00
49945;BME280;35838;49.134;9.212;2023-09-08T06:35:17;100146.44;;;17.54;100.00
49945;BME280;35838;49.134;9.212;2023-09-08T06:36:48;100151.63;;;17.56;100.00
49945;BME280;35838;49.134;9.212;2023-09-08T06:38:21;100148.88;;;17.61;100.00
49945;BME280;35838;49.134;9.212;2023-09-08T06:39:54;100154.81;;;17.67;100.00
49945;BME280;35838;49.134;9.212;2023-09-08T06:41:27;100148.53;;;17.73;100.00
49945;BME280;35838;49.134;9.212;2023-09-08T06:42:59;100143.97;;;17.80;100.00
49945;BME280;35838;49.134;9.212;2023-09-08T06:44:32;100141.28;;;17.81;100.00
49945;BME280;35838;49.134;9.212;2023-09-08T06:46:06;100143.75;;;17.86;100.00
49945;BME280;35838;49.134;9.212;2023-09-08T06:47:40;100142.81;;;17.89;100.00
49945;BME280;35838;49.134;9.212;2023-09-08T06:49:11;100144.47;;;17.91;100.00
49945;BME280;35838;49.134;9.212;2023-09-08T06:50:45;100147.81;;;17.98;100.00
49945;BME280;35838;49.134;9.212;2023-09-08T06:52:16;100140.81;;;17.97;100.00
49945;BME280;35838;49.134;9.212;2023-09-08T06:53:53;100138.00;;;18.03;100.00
49945;BME280;35838;49.134;9.212;2023-09-08T06:55:25;100143.09;;;18.09;100.00
49945;BME280;35838;49.134;9.212;2023-09-08T06:56:58;100139.44;;;18.13;100.00
49945;BME280;35838;49.134;9.212;2023-09-08T06:58:32;100138.53;;;18.14;100.00
49945;BME280;35838;49.134;9.212;2023-09-08T07:00:04;100141.16;;;18.14;100.00
49945;BME280;35838;49.134;9.212;2023-09-08T07:01:42;100136.94;;;18.10;100.00
49945;BME280;35838;49.134;9.212;2023-09-08T07:03:13;100133.00;;;18.24;100.00
49945;BME280;35838;49.134;9.212;2023-09-08T07:04:46;100132.78;;;18.30;100.00
49945;BME280;35838;49.134;9.212;2023-09-08T07:06:17;100131.78;;;18.34;100.00
49945;BME280;35838;49.134;9.212;2023-09-08T07:07:52;100139.47;;;18.40;100.00
49945;BME280;35838;49.134;9.212;2023-09-08T07:09:23;100135.69;;;18.49;100.00
49945;BME280;35838;49.134;9.212;2023-09-08T07:10:57;100138.78;;;18.60;100.00
49945;BME280;35838;49.134;9.212;2023-09-08T07:12:31;100143.81;;;18.68;100.00
49945;BME280;35838;49.134;9.212;2023-09-08T07:14:02;100142.81;;;18.71;100.00
49945;BME280;35838;49.134;9.212;2023-09-08T07:15:36;100136.50;;;18.76;100.00
49945;BME280;35838;49.134;9.212;2023-09-08T07:17:09;100139.94;;;18.78;100.00
49945;BME280;35838;49.134;9.212;2023-09-08T07:18:43;100136.28;;;18.83;100.00
49945;BME280;35838;49.134;9.212;2023-09-08T07:20:17;100132.66;;;18.87;100.00
49945;BME280;35838;49.134;9.212;2023-09-08T07:21:48;100131.63;;;18.92;100.00
49945;BME280;35838;49.134;9.212;2023-09-08T07:23:22;100131.69;;;18.89;100.00
49945;BME280;35838;49.134;9.212;2023-09-08T07:24:53;100135.28;;;18.87;100.00
49945;BME280;35838;49.134;9.212;2023-09-08T07:26:26;100132.47;;;18.93;100.00
49945;BME280;35838;49.134;9.212;2023-09-08T07:27:57;100133.00;;;19.03;100.00
49945;BME280;35838;49.134;9.212;2023-09-08T07:29:31;100138.69;;;19.16;100.00
49945;BME280;35838;49.134;9.212;2023-09-08T07:31:02;100139.31;;;19.22;100.00
49945;BME280;35838;49.134;9.212;2023-09-08T07:32:39;100129.44;;;19.29;100.00
49945;BME280;35838;49.134;9.212;2023-09-08T07:34:10;100134.59;;;19.32;100.00
49945;BME280;35838;49.134;9.212;2023-09-08T07:35:44;100121.03;;;19.43;100.00
49945;BME280;35838;49.134;9.212;2023-09-08T07:37:15;100127.66;;;19.53;100.00
49945;BME280;35838;49.134;9.212;2023-09-08T07:38:49;100131.69;;;19.62;100.00
49945;BME280;35838;49.134;9.212;2023-09-08T07:40:22;100121.97;;;19.64;100.00
49945;BME280;35838;49.134;9.212;2023-09-08T07:41:53;100116.47;;;19.70;100.00
49945;BME280;35838;49.134;9.212;2023-09-08T07:43:27;100111.44;;;19.88;100.00
49945;BME280;35838;49.134;9.212;2023-09-08T07:44:58;100116.13;;;19.80;100.00
49945;BME280;35838;49.134;9.212;2023-09-08T07:46:32;100115.09;;;19.84;100.00
49945;BME280;35838;49.134;9.212;2023-09-08T07:48:08;100117.56;;;19.88;100.00
49945;BME280;35838;49.134;9.212;2023-09-08T07:49:44;100115.38;;;20.00;100.00
49945;BME280;35838;49.134;9.212;2023-09-08T07:51:18;100121.25;;;20.07;100.00
49945;BME280;35838;49.134;9.212;2023-09-08T07:52:49;100112.56;;;20.04;100.00
49945;BME280;35838;49.134;9.212;2023-09-08T07:54:23;100111.25;;;20.15;100.00
49945;BME280;35838;49.134;9.212;2023-09-08T07:55:54;100102.06;;;20.25;100.00
49945;BME280;35838;49.134;9.212;2023-09-08T07:57:28;100108.13;;;20.27;100.00
49945;BME280;35838;49.134;9.212;2023-09-08T07:58:59;100102.47;;;20.37;100.00
49945;BME280;35838;49.134;9.212;2023-09-08T08:00:33;100103.63;;;20.51;100.00
49945;BME280;35838;49.134;9.212;2023-09-08T08:02:04;100111.97;;;20.61;100.00
49945;BME280;35838;49.134;9.212;2023-09-08T08:03:40;100098.69;;;20.85;100.00
49945;BME280;35838;49.134;9.212;2023-09-08T08:05:11;100099.44;;;20.89;100.00
49945;BME280;35838;49.134;9.212;2023-09-08T08:06:45;100105.34;;;20.73;100.00
49945;BME280;35838;49.134;9.212;2023-09-08T08:08:16;100095.28;;;20.83;100.00
49945;BME280;35838;49.134;9.212;2023-09-08T08:09:49;100100.00;;;20.95;100.00
49945;BME280;35838;49.134;9.212;2023-09-08T08:11:20;100090.75;;;21.06;100.00
49945;BME280;35838;49.134;9.212;2023-09-08T08:12:54;100091.06;;;21.19;100.00
49945;BME280;35838;49.134;9.212;2023-09-08T08:14:25;100095.00;;;21.29;100.00
49945;BME280;35838;49.134;9.212;2023-09-08T08:15:59;100091.00;;;21.39;100.00
49945;BME280;35838;49.134;9.212;2023-09-08T08:17:30;100093.94;;;21.52;100.00
49945;BME280;35838;49.134;9.212;2023-09-08T08:19:06;100092.63;;;21.63;100.00
49945;BME280;35838;49.134;9.212;2023-09-08T08:20:40;100084.00;;;21.57;100.00
49945;BME280;35838;49.134;9.212;2023-09-08T08:22:11;100089.81;;;21.66;100.00
49945;BME280;35838;49.134;9.212;2023-09-08T08:23:44;100088.84;;;21.68;100.00
49945;BME280;35838;49.134;9.212;2023-09-08T08:25:18;100085.19;;;21.71;100.00
49945;BME280;35838;49.134;9.212;2023-09-08T08:26:49;100081.53;;;21.73;100.00
49945;BME280;35838;49.134;9.212;2023-09-08T08:28:23;100082.81;;;21.65;100.00
49945;BME280;35838;49.134;9.212;2023-09-08T08:29:55;100086.09;;;21.70;100.00
49945;BME280;35838;49.134;9.212;2023-09-08T08:31:30;100079.69;;;21.75;100.00
49945;BME280;35838;49.134;9.212;2023-09-08T08:33:01;100081.72;;;21.88;100.00
49945;BME280;35838;49.134;9.212;2023-09-08T08:34:37;100088.50;;;21.94;100.00
49945;BME280;35838;49.134;9.212;2023-09-08T08:36:08;100079.94;;;21.88;100.00
49945;BME280;35838;49.134;9.212;2023-09-08T08:37:42;100082.50;;;21.90;100.00
49945;BME280;35838;49.134;9.212;2023-09-08T08:39:13;100069.97;;;21.76;100.00
49945;BME280;35838;49.134;9.212;2023-09-08T08:40:46;100073.50;;;21.94;100.00
49945;BME280;35838;49.134;9.212;2023-09-08T08:42:17;100081.00;;;22.03;100.00
49945;BME280;35838;49.134;9.212;2023-09-08T08:43:52;100069.88;;;22.14;100.00
49945;BME280;35838;49.134;9.212;2023-09-08T08:45:24;100071.75;;;22.30;100.00
49945;BME280;35838;49.134;9.212;2023-09-08T08:46:58;100078.31;;;22.40;100.00
49945;BME280;35838;49.134;9.212;2023-09-08T08:48:33;100064.88;;;22.45;100.00
49945;BME280;35838;49.134;9.212;2023-09-08T08:50:10;100073.72;;;22.61;100.00
49945;BME280;35838;49.134;9.212;2023-09-08T08:51:42;100072.38;;;22.70;100.00
49945;BME280;35838;49.134;9.212;2023-09-08T08:53:17;100069.81;;;22.68;100.00
49945;BME280;35838;49.134;9.212;2023-09-08T08:54:51;100073.78;;;22.77;100.00
49945;BME280;35838;49.134;9.212;2023-09-08T08:56:25;100073.09;;;22.74;100.00
49945;BME280;35838;49.134;9.212;2023-09-08T08:58:00;100070.81;;;22.83;100.00
49945;BME280;35838;49.134;9.212;2023-09-08T08:59:33;100071.38;;;22.73;100.00
49945;BME280;35838;49.134;9.212;2023-09-08T09:01:07;100068.66;;;22.74;100.00
49945;BME280;35838;49.134;9.212;2023-09-08T09:02:42;100062.88;;;22.83;100.00
49945;BME280;35838;49.134;9.212;2023-09-08T09:04:15;100067.22;;;22.84;100.00
49945;BME280;35838;49.134;9.212;2023-09-08T09:05:49;100065.38;;;22.87;100.00
49945;BME280;35838;49.134;9.212;2023-09-08T09:07:23;100067.13;;;22.86;100.00
49945;BME280;35838;49.134;9.212;2023-09-08T09:08:55;100063.75;;;23.00;100.00
49945;BME280;35838;49.134;9.212;2023-09-08T09:10:29;100070.44;;;23.07;100.00
49945;BME280;35838;49.134;9.212;2023-09-08T09:12:00;100069.94;;;23.16;100.00
49945;BME280;35838;49.134;9.212;2023-09-08T09:13:35;100066.34;;;23.17;100.00
49945;BME280;35838;49.134;9.212;2023-09-08T09:15:06;100064.44;;;23.21;100.00
49945;BME280;35838;49.134;9.212;2023-09-08T09:16:41;100067.94;;;23.22;100.00
49945;BME280;35838;49.134;9.212;2023-09-08T09:18:13;100066.47;;;23.32;100.00
49945;BME280;35838;49.134;9.212;2023-09-08T09:19:46;100061.31;;;23.46;100.00
49945;BME280;35838;49.134;9.212;2023-09-08T09:21:20;100066.09;;;23.56;100.00
49945;BME280;35838;49.134;9.212;2023-09-08T09:22:53;100066.41;;;23.66;100.00
49945;BME280;35838;49.134;9.212;2023-09-08T09:24:31;100057.19;;;23.57;100.00
49945;BME280;35838;49.134;9.212;2023-09-08T09:26:07;100063.50;;;23.54;100.00
49945;BME280;35838;49.134;9.212;2023-09-08T09:27:38;100058.56;;;23.48;100.00
49945;BME280;35838;49.134;9.212;2023-09-08T09:29:15;100063.59;;;23.53;100.00
49945;BME280;35838;49.134;9.212;2023-09-08T09:30:49;100064.97;;;23.60;100.00
49945;BME280;35838;49.134;9.212;2023-09-08T09:32:22;100063.25;;;23.59;100.00
49945;BME280;35838;49.134;9.212;2023-09-08T09:34:02;100066.50;;;23.64;100.00
49945;BME280;35838;49.134;9.212;2023-09-08T09:35:41;100058.31;;;23.53;100.00
49945;BME280;35838;49.134;9.212;2023-09-08T09:37:18;100056.78;;;23.49;100.00
49945;BME280;35838;49.134;9.212;2023-09-08T09:38:52;100055.13;;;23.62;100.00
49945;BME280;35838;49.134;9.212;2023-09-08T09:40:28;100053.84;;;23.69;100.00
49945;BME280;35838;49.134;9.212;2023-09-08T09:42:03;100055.13;;;23.78;100.00
49945;BME280;35838;49.134;9.212;2023-09-08T09:43:35;100053.56;;;23.90;100.00
49945;BME280;35838;49.134;9.212;2023-09-08T09:45:10;100055.13;;;23.94;100.00
49945;BME280;35838;49.134;9.212;2023-09-08T09:46:44;100051.38;;;23.98;100.00
49945;BME280;35838;49.134;9.212;2023-09-08T09:48:19;100043.16;;;24.03;100.00
49945;BME280;35838;49.134;9.212;2023-09-08T09:49:50;100045.84;;;24.17;100.00
49945;BME280;35838;49.134;9.212;2023-09-08T09:51:24;100041.44;;;24.32;100.00
49945;BME280;35838;49.134;9.212;2023-09-08T09:52:57;100042.56;;;24.28;100.00
49945;BME280;35838;49.134;9.212;2023-09-08T09:54:32;100039.56;;;24.34;100.00
49945;BME280;35838;49.134;9.212;2023-09-08T09:56:03;100041.66;;;24.44;100.00
49945;BME280;35838;49.134;9.212;2023-09-08T09:57:37;100036.84;;;24.50;100.00
49945;BME280;35838;49.134;9.212;2023-09-08T09:59:09;100040.91;;;24.56;100.00
49945;BME280;35838;49.134;9.212;2023-09-08T10:00:43;100037.69;;;24.51;100.00
49945;BME280;35838;49.134;9.212;2023-09-08T10:02:18;100037.00;;;24.47;100.00
49945;BME280;35838;49.134;9.212;2023-09-08T10:03:51;100032.09;;;24.55;100.00
49945;BME280;35838;49.134;9.212;2023-09-08T10:05:25;100035.78;;;24.53;100.00
49945;BME280;35838;49.134;9.212;2023-09-08T10:06:57;100034.97;;;24.67;100.00
49945;BME280;35838;49.134;9.212;2023-09-08T10:08:34;100031.78;;;24.76;100.00
49945;BME280;35838;49.134;9.212;2023-09-08T10:10:07;100032.44;;;24.80;100.00
49945;BME280;35838;49.134;9.212;2023-09-08T10:11:42;100030.53;;;24.82;100.00
49945;BME280;35838;49.134;9.212;2023-09-08T10:13:13;100033.28;;;24.80;100.00
49945;BME280;35838;49.134;9.212;2023-09-08T10:14:50;100028.06;;;24.93;100.00
49945;BME280;35838;49.134;9.212;2023-09-08T10:16:23;100026.34;;;24.92;100.00
49945;BME280;35838;49.134;9.212;2023-09-08T10:17:59;100024.94;;;25.01;100.00
49945;BME280;35838;49.134;9.212;2023-09-08T10:19:30;100022.19;;;25.02;100.00
49945;BME280;35838;49.134;9.212;2023-09-08T10:21:09;100020.50;;;24.87;100.00
49945;BME280;35838;49.134;9.212;2023-09-08T10:22:42;100014.03;;;24.91;100.00